sensor_id;sensor_type;location;lat;lon;timestamp;temperature;humidity
18753;DHT22;9505;50.882;5.350;2023-12-29T00:01:48;10.70;99.90
18753;DHT22;9505;50.882;5.350;2023-12-29T00:04:14;10.70;99.90
18753;DHT22;9505;50.882;5.350;2023-12-29T00:06:40;10.70;99.90
18753;DHT22;9505;50.882;5.350;2023-12-29T00:09:06;10.70;99.90
18753;DHT22;9505;50.882;5.350;2023-12-29T00:11:33;10.70;99.90
18753;DHT22;9505;50.882;5.350;2023-12-29T00:13:59;10.70;99.90
18753;DHT22;9505;50.882;5.350;2023-12-29T00:16:24;10.80;99.90
18753;DHT22;9505;50.882;5.350;2023-12-29T00:18:50;10.70;99.90
18753;DHT22;9505;50.882;5.350;2023-12-29T00:21:16;10.70;99.90
18753;DHT22;9505;50.882;5.350;2023-12-29T00:23:41;10.70;99.90
18753;DHT22;9505;50.882;5.350;2023-12-29T00:26:07;10.70;99.90
18753;DHT22;9505;50.882;5.350;2023-12-29T00:28:33;10.60;99.90
18753;DHT22;9505;50.882;5.350;2023-12-29T00:31:01;10.70;99.90
18753;DHT22;9505;50.882;5.350;2023-12-29T00:33:26;10.60;99.90
18753;DHT22;9505;50.882;5.350;2023-12-29T00:35:52;10.70;99.90
18753;DHT22;9505;50.882;5.350;2023-12-29T00:38:18;10.60;99.90
18753;DHT22;9505;50.882;5.350;2023-12-29T00:40:43;10.60;99.90
18753;DHT22;9505;50.882;5.350;2023-12-29T00:43:09;10.70;99.90
18753;DHT22;9505;50.882;5.350;2023-12-29T00:45:34;10.70;99.90
18753;DHT22;9505;50.882;5.350;2023-12-29T00:48:02;10.70;99.90
18753;DHT22;9505;50.882;5.350;2023-12-29T00:50:28;10.70;99.90
18753;DHT22;9505;50.882;5.350;2023-12-29T00:52:54;10.60;99.90
18753;DHT22;9505;50.882;5.350;2023-12-29T00:55:19;10.60;99.90
18753;DHT22;9505;50.882;5.350;2023-12-29T00:57:45;10.60;99.90
18753;DHT22;9505;50.882;5.350;2023-12-29T01:00:12;10.60;99.90
18753;DHT22;9505;50.882;5.350;2023-12-29T01:02:41;10.60;99.90
18753;DHT22;9505;50.882;5.350;2023-12-29T01:05:07;10.60;99.90
18753;DHT22;9505;50.882;5.350;2023-12-29T01:07:32;10.60;99.90
18753;DHT22;9505;50.882;5.350;2023-12-29T01:09:58;10.50;99.90
18753;DHT22;9505;50.882;5.350;2023-12-29T01:12:25;10.50;99.90
18753;DHT22;9505;50.882;5.350;2023-12-29T01:14:51;10.60;99.90
18753;DHT22;9505;50.882;5.350;2023-12-29T01:17:16;10.50;99.90
18753;DHT22;9505;50.882;5.350;2023-12-29T01:19:42;10.60;99.90
18753;DHT22;9505;50.882;5.350;2023-12-29T01:22:07;10.60;99.90
18753;DHT22;9505;50.882;5.350;2023-12-29T01:24:33;10.60;99.90
18753;DHT22;9505;50.882;5.350;2023-12-29T01:26:59;10.60;99.90
18753;DHT22;9505;50.882;5.350;2023-12-29T01:29:24;10.60;99.90
18753;DHT22;9505;50.882;5.350;2023-12-29T01:31:50;10.60;99.90
18753;DHT22;9505;50.882;5.350;2023-12-29T01:34:15;10.60;99.90
18753;DHT22;9505;50.882;5.350;2023-12-29T01:36:41;10.60;99.90
18753;DHT22;9505;50.882;5.350;2023-12-29T01:39:06;10.60;99.90
18753;DHT22;9505;50.882;5.350;2023-12-29T01:41:32;10.60;99.90
18753;DHT22;9505;50.882;5.350;2023-12-29T01:46:28;10.60;99.90
18753;DHT22;9505;50.882;5.350;2023-12-29T01:48:54;10.70;99.90
18753;DHT22;9505;50.882;5.350;2023-12-29T01:51:25;10.60;99.90
18753;DHT22;9505;50.882;5.350;2023-12-29T01:53:55;10.60;99.90
18753;DHT22;9505;50.882;5.350;2023-12-29T01:56:21;10.70;99.90
18753;DHT22;9505;50.882;5.350;2023-12-29T01:58:49;10.70;99.90
18753;DHT22;9505;50.882;5.350;2023-12-29T02:01:18;10.60;99.90
18753;DHT22;9505;50.882;5.350;2023-12-29T02:03:47;10.60;99.90
18753;DHT22;9505;50.882;5.350;2023-12-29T02:06:13;10.60;99.90
18753;DHT22;9505;50.882;5.350;2023-12-29T02:08:41;10.60;99.90
18753;DHT22;9505;50.882;5.350;2023-12-29T02:11:07;10.60;99.90
18753;DHT22;9505;50.882;5.350;2023-12-29T02:13:32;10.60;99.90
18753;DHT22;9505;50.882;5.350;2023-12-29T02:16:07;10.60;99.90
18753;DHT22;9505;50.882;5.350;2023-12-29T02:18:36;10.60;99.90
18753;DHT22;9505;50.882;5.350;2023-12-29T02:21:03;10.60;99.90
18753;DHT22;9505;50.882;5.350;2023-12-29T02:23:29;10.60;99.90
18753;DHT22;9505;50.882;5.350;2023-12-29T02:26:01;10.60;99.90
18753;DHT22;9505;50.882;5.350;2023-12-29T02:28:28;10.50;99.90
18753;DHT22;9505;50.882;5.350;2023-12-29T02:31:29;10.60;99.90
18753;DHT22;9505;50.882;5.350;2023-12-29T02:33:56;10.40;99.90
18753;DHT22;9505;50.882;5.350;2023-12-29T02:36:23;10.40;99.90
18753;DHT22;9505;50.882;5.350;2023-12-29T02:38:50;10.50;99.90
18753;DHT22;9505;50.882;5.350;2023-12-29T02:41:15;10.50;99.90
18753;DHT22;9505;50.882;5.350;2023-12-29T02:43:41;10.40;99.90
18753;DHT22;9505;50.882;5.350;2023-12-29T02:46:06;10.40;99.90
18753;DHT22;9505;50.882;5.350;2023-12-29T02:48:32;10.50;99.90
18753;DHT22;9505;50.882;5.350;2023-12-29T02:50:58;10.50;99.90
18753;DHT22;9505;50.882;5.350;2023-12-29T02:53:23;10.40;99.90
18753;DHT22;9505;50.882;5.350;2023-12-29T02:55:49;10.40;99.90
18753;DHT22;9505;50.882;5.350;2023-12-29T02:58:14;10.40;99.90
18753;DHT22;9505;50.882;5.350;2023-12-29T03:00:40;10.40;99.90
18753;DHT22;9505;50.882;5.350;2023-12-29T03:03:07;10.40;99.90
18753;DHT22;9505;50.882;5.350;2023-12-29T03:05:32;10.40;99.90
18753;DHT22;9505;50.882;5.350;2023-12-29T03:07:58;10.40;99.90
18753;DHT22;9505;50.882;5.350;2023-12-29T03:10:23;10.40;99.90
18753;DHT22;9505;50.882;5.350;2023-12-29T03:12:49;10.50;99.90
18753;DHT22;9505;50.882;5.350;2023-12-29T03:15:15;10.60;99.90
18753;DHT22;9505;50.882;5.350;2023-12-29T03:17:40;10.60;99.90
18753;DHT22;9505;50.882;5.350;2023-12-29T03:20:06;10.60;99.90
18753;DHT22;9505;50.882;5.350;2023-12-29T03:22:33;10.70;99.90
18753;DHT22;9505;50.882;5.350;2023-12-29T03:24:59;10.70;99.90
18753;DHT22;9505;50.882;5.350;2023-12-29T03:27:24;10.70;99.90
18753;DHT22;9505;50.882;5.350;2023-12-29T03:29:50;10.80;99.90
18753;DHT22;9505;50.882;5.350;2023-12-29T03:32:15;10.70;99.90
18753;DHT22;9505;50.882;5.350;2023-12-29T03:34:42;10.70;99.90
18753;DHT22;9505;50.882;5.350;2023-12-29T03:37:08;10.70;99.90
18753;DHT22;9505;50.882;5.350;2023-12-29T03:39:35;10.80;99.90
18753;DHT22;9505;50.882;5.350;2023-12-29T03:42:01;10.70;99.90
18753;DHT22;9505;50.882;5.350;2023-12-29T03:44:26;10.70;99.90
18753;DHT22;9505;50.882;5.350;2023-12-29T03:46:52;10.70;99.90
18753;DHT22;9505;50.882;5.350;2023-12-29T03:49:18;10.70;99.90
18753;DHT22;9505;50.882;5.350;2023-12-29T03:51:45;10.60;99.90
18753;DHT22;9505;50.882;5.350;2023-12-29T03:54:11;10.60;99.90
18753;DHT22;9505;50.882;5.350;2023-12-29T03:56:37;10.60;99.90
18753;DHT22;9505;50.882;5.350;2023-12-29T03:59:03;10.60;99.90
18753;DHT22;9505;50.882;5.350;2023-12-29T04:01:28;10.60;99.90
18753;DHT22;9505;50.882;5.350;2023-12-29T04:03:54;10.50;99.90
18753;DHT22;9505;50.882;5.350;2023-12-29T04:06:19;10.50;99.90
18753;DHT22;9505;50.882;5.350;2023-12-29T04:08:45;10.50;99.90
18753;DHT22;9505;50.882;5.350;2023-12-29T04:11:11;10.50;99.90
18753;DHT22;9505;50.882;5.350;2023-12-29T04:13:37;10.60;99.90
18753;DHT22;9505;50.882;5.350;2023-12-29T04:16:03;10.60;99.90
18753;DHT22;9505;50.882;5.350;2023-12-29T04:18:29;10.50;99.90
18753;DHT22;9505;50.882;5.350;2023-12-29T04:20:54;10.50;99.90
18753;DHT22;9505;50.882;5.350;2023-12-29T04:23:20;10.50;99.90
18753;DHT22;9505;50.882;5.350;2023-12-29T04:25:46;10.50;99.90
18753;DHT22;9505;50.882;5.350;2023-12-29T04:28:11;10.50;99.90
18753;DHT22;9505;50.882;5.350;2023-12-29T04:30:37;10.50;99.90
18753;DHT22;9505;50.882;5.350;2023-12-29T04:33:03;10.50;99.90
18753;DHT22;9505;50.882;5.350;2023-12-29T04:35:29;10.50;99.90
18753;DHT22;9505;50.882;5.350;2023-12-29T04:37:54;10.50;99.90
18753;DHT22;9505;50.882;5.350;2023-12-29T04:40:20;10.60;99.90
18753;DHT22;9505;50.882;5.350;2023-12-29T04:42:45;10.60;99.90
18753;DHT22;9505;50.882;5.350;2023-12-29T04:45:11;10.50;99.90
18753;DHT22;9505;50.882;5.350;2023-12-29T04:47:37;10.40;99.90
18753;DHT22;9505;50.882;5.350;2023-12-29T04:50:03;10.40;99.90
18753;DHT22;9505;50.882;5.350;2023-12-29T04:52:29;10.30;99.90
18753;DHT22;9505;50.882;5.350;2023-12-29T04:54:54;10.30;99.90
18753;DHT22;9505;50.882;5.350;2023-12-29T04:57:20;10.30;99.90
18753;DHT22;9505;50.882;5.350;2023-12-29T04:59:46;10.20;99.90
18753;DHT22;9505;50.882;5.350;2023-12-29T05:02:11;10.20;99.90
18753;DHT22;9505;50.882;5.350;2023-12-29T05:04:37;10.20;99.90
18753;DHT22;9505;50.882;5.350;2023-12-29T05:07:05;10.20;99.90
18753;DHT22;9505;50.882;5.350;2023-12-29T05:09:30;10.20;99.90
18753;DHT22;9505;50.882;5.350;2023-12-29T05:11:56;10.10;99.90
18753;DHT22;9505;50.882;5.350;2023-12-29T05:14:22;10.10;99.90
18753;DHT22;9505;50.882;5.350;2023-12-29T05:16:48;10.10;99.90
18753;DHT22;9505;50.882;5.350;2023-12-29T05:19:15;10.10;99.90
18753;DHT22;9505;50.882;5.350;2023-12-29T05:21:41;10.10;99.90
18753;DHT22;9505;50.882;5.350;2023-12-29T05:24:07;10.10;99.90
18753;DHT22;9505;50.882;5.350;2023-12-29T05:26:33;10.10;99.90
18753;DHT22;9505;50.882;5.350;2023-12-29T05:29:00;10.10;99.90
18753;DHT22;9505;50.882;5.350;2023-12-29T05:31:26;10.10;99.90
18753;DHT22;9505;50.882;5.350;2023-12-29T05:33:51;10.20;99.90
18753;DHT22;9505;50.882;5.350;2023-12-29T05:36:17;10.20;99.90
18753;DHT22;9505;50.882;5.350;2023-12-29T05:38:45;10.20;99.90
18753;DHT22;9505;50.882;5.350;2023-12-29T05:41:13;10.30;99.90
18753;DHT22;9505;50.882;5.350;2023-12-29T05:43:39;10.30;99.90
18753;DHT22;9505;50.882;5.350;2023-12-29T05:46:09;10.40;99.90
18753;DHT22;9505;50.882;5.350;2023-12-29T05:48:36;10.40;99.90
18753;DHT22;9505;50.882;5.350;2023-12-29T05:51:12;10.40;99.90
18753;DHT22;9505;50.882;5.350;2023-12-29T05:53:41;10.50;99.90
18753;DHT22;9505;50.882;5.350;2023-12-29T05:56:09;10.50;99.90
18753;DHT22;9505;50.882;5.350;2023-12-29T05:58:35;10.50;99.90
18753;DHT22;9505;50.882;5.350;2023-12-29T06:01:00;10.50;99.90
18753;DHT22;9505;50.882;5.350;2023-12-29T06:03:27;10.50;99.90
18753;DHT22;9505;50.882;5.350;2023-12-29T06:05:53;10.50;99.90
18753;DHT22;9505;50.882;5.350;2023-12-29T06:08:18;10.50;99.90
18753;DHT22;9505;50.882;5.350;2023-12-29T06:10:44;10.40;99.90
18753;DHT22;9505;50.882;5.350;2023-12-29T06:13:09;10.50;99.90
18753;DHT22;9505;50.882;5.350;2023-12-29T06:15:35;10.50;99.90
18753;DHT22;9505;50.882;5.350;2023-12-29T06:18:02;10.50;99.90
18753;DHT22;9505;50.882;5.350;2023-12-29T06:20:27;10.50;99.90
18753;DHT22;9505;50.882;5.350;2023-12-29T06:22:53;10.50;99.90
18753;DHT22;9505;50.882;5.350;2023-12-29T06:25:19;10.50;99.90
18753;DHT22;9505;50.882;5.350;2023-12-29T06:27:44;10.60;99.90
18753;DHT22;9505;50.882;5.350;2023-12-29T06:30:10;10.60;99.90
18753;DHT22;9505;50.882;5.350;2023-12-29T06:32:36;10.60;99.90
18753;DHT22;9505;50.882;5.350;2023-12-29T06:35:02;10.60;99.90
18753;DHT22;9505;50.882;5.350;2023-12-29T06:37:28;10.60;99.90
18753;DHT22;9505;50.882;5.350;2023-12-29T06:39:54;10.60;99.90
18753;DHT22;9505;50.882;5.350;2023-12-29T06:42:19;10.60;99.90
18753;DHT22;9505;50.882;5.350;2023-12-29T06:44:46;10.50;99.90
18753;DHT22;9505;50.882;5.350;2023-12-29T06:47:12;10.50;99.90
18753;DHT22;9505;50.882;5.350;2023-12-29T06:49:38;10.60;99.90
18753;DHT22;9505;50.882;5.350;2023-12-29T06:52:04;10.50;99.90
18753;DHT22;9505;50.882;5.350;2023-12-29T06:54:30;10.30;99.90
18753;DHT22;9505;50.882;5.350;2023-12-29T06:56:56;10.10;99.90
18753;DHT22;9505;50.882;5.350;2023-12-29T06:59:22;9.90;99.90
18753;DHT22;9505;50.882;5.350;2023-12-29T07:01:48;9.80;99.90
18753;DHT22;9505;50.882;5.350;2023-12-29T07:04:14;9.80;99.90
18753;DHT22;9505;50.882;5.350;2023-12-29T07:06:41;9.60;99.90
18753;DHT22;9505;50.882;5.350;2023-12-29T07:09:07;9.50;99.90
18753;DHT22;9505;50.882;5.350;2023-12-29T07:11:34;9.50;99.90
18753;DHT22;9505;50.882;5.350;2023-12-29T07:14:00;9.40;99.90
18753;DHT22;9505;50.882;5.350;2023-12-29T07:16:25;9.40;99.90
18753;DHT22;9505;50.882;5.350;2023-12-29T07:18:51;9.40;99.90
18753;DHT22;9505;50.882;5.350;2023-12-29T07:21:17;9.40;99.90
18753;DHT22;9505;50.882;5.350;2023-12-29T07:23:43;9.30;99.90
18753;DHT22;9505;50.882;5.350;2023-12-29T07:26:17;9.30;99.90
18753;DHT22;9505;50.882;5.350;2023-12-29T07:28:43;9.30;99.90
18753;DHT22;9505;50.882;5.350;2023-12-29T07:31:08;9.30;99.90
18753;DHT22;9505;50.882;5.350;2023-12-29T07:33:34;9.30;99.90
18753;DHT22;9505;50.882;5.350;2023-12-29T07:36:00;9.20;99.90
18753;DHT22;9505;50.882;5.350;2023-12-29T07:38:25;9.30;99.90
18753;DHT22;9505;50.882;5.350;2023-12-29T07:40:52;9.30;99.90
18753;DHT22;9505;50.882;5.350;2023-12-29T07:43:17;9.30;99.90
18753;DHT22;9505;50.882;5.350;2023-12-29T07:45:43;9.30;99.90
18753;DHT22;9505;50.882;5.350;2023-12-29T07:48:09;9.30;99.90
18753;DHT22;9505;50.882;5.350;2023-12-29T07:50:34;9.20;99.90
18753;DHT22;9505;50.882;5.350;2023-12-29T07:53:00;9.20;99.90
18753;DHT22;9505;50.882;5.350;2023-12-29T07:55:29;9.30;99.90
18753;DHT22;9505;50.882;5.350;2023-12-29T07:57:54;9.30;99.90
18753;DHT22;9505;50.882;5.350;2023-12-29T08:00:20;9.30;99.90
18753;DHT22;9505;50.882;5.350;2023-12-29T08:02:46;9.30;99.90
18753;DHT22;9505;50.882;5.350;2023-12-29T08:05:11;9.30;99.90
18753;DHT22;9505;50.882;5.350;2023-12-29T08:07:37;9.30;99.90
18753;DHT22;9505;50.882;5.350;2023-12-29T08:10:06;9.30;99.90
18753;DHT22;9505;50.882;5.350;2023-12-29T08:12:33;9.30;99.90
18753;DHT22;9505;50.882;5.350;2023-12-29T08:14:59;9.30;99.90
18753;DHT22;9505;50.882;5.350;2023-12-29T08:17:25;9.40;99.90
18753;DHT22;9505;50.882;5.350;2023-12-29T08:19:51;9.40;99.90
18753;DHT22;9505;50.882;5.350;2023-12-29T08:22:17;9.40;99.90
18753;DHT22;9505;50.882;5.350;2023-12-29T08:24:42;9.40;99.90
18753;DHT22;9505;50.882;5.350;2023-12-29T08:27:14;9.40;99.90
18753;DHT22;9505;50.882;5.350;2023-12-29T08:29:40;9.40;99.90
18753;DHT22;9505;50.882;5.350;2023-12-29T08:32:06;9.40;99.90
18753;DHT22;9505;50.882;5.350;2023-12-29T08:34:32;9.50;99.90
18753;DHT22;9505;50.882;5.350;2023-12-29T08:36:59;9.40;99.90
18753;DHT22;9505;50.882;5.350;2023-12-29T08:39:25;9.40;99.90
18753;DHT22;9505;50.882;5.350;2023-12-29T08:41:51;9.50;99.90
18753;DHT22;9505;50.882;5.350;2023-12-29T08:44:17;9.50;99.90
18753;DHT22;9505;50.882;5.350;2023-12-29T08:46:42;9.50;99.90
18753;DHT22;9505;50.882;5.350;2023-12-29T08:49:08;9.50;99.90
18753;DHT22;9505;50.882;5.350;2023-12-29T08:51:34;9.60;99.90
18753;DHT22;9505;50.882;5.350;2023-12-29T08:54:00;9.60;99.90
18753;DHT22;9505;50.882;5.350;2023-12-29T08:56:25;9.60;99.90
18753;DHT22;9505;50.882;5.350;2023-12-29T08:58:51;9.60;99.90
18753;DHT22;9505;50.882;5.350;2023-12-29T09:01:17;9.70;99.90
18753;DHT22;9505;50.882;5.350;2023-12-29T09:03:43;9.70;99.90
18753;DHT22;9505;50.882;5.350;2023-12-29T09:06:09;9.80;99.90
18753;DHT22;9505;50.882;5.350;2023-12-29T09:08:35;9.90;99.90
18753;DHT22;9505;50.882;5.350;2023-12-29T09:11:01;9.90;99.90
18753;DHT22;9505;50.882;5.350;2023-12-29T09:13:27;9.90;99.90
18753;DHT22;9505;50.882;5.350;2023-12-29T09:15:56;9.90;99.90
18753;DHT22;9505;50.882;5.350;2023-12-29T09:18:22;9.90;99.90
18753;DHT22;9505;50.882;5.350;2023-12-29T09:20:48;9.90;99.90
18753;DHT22;9505;50.882;5.350;2023-12-29T09:23:14;10.00;99.90
18753;DHT22;9505;50.882;5.350;2023-12-29T09:25:40;10.00;99.90
18753;DHT22;9505;50.882;5.350;2023-12-29T09:28:06;10.00;99.90
18753;DHT22;9505;50.882;5.350;2023-12-29T09:30:32;10.10;99.90
18753;DHT22;9505;50.882;5.350;2023-12-29T09:32:57;10.10;99.90
18753;DHT22;9505;50.882;5.350;2023-12-29T09:35:23;10.10;99.90
18753;DHT22;9505;50.882;5.350;2023-12-29T09:37:49;10.20;99.90
18753;DHT22;9505;50.882;5.350;2023-12-29T09:40:15;10.20;99.90
18753;DHT22;9505;50.882;5.350;2023-12-29T09:42:43;10.20;99.90
18753;DHT22;9505;50.882;5.350;2023-12-29T09:45:11;10.30;99.90
18753;DHT22;9505;50.882;5.350;2023-12-29T09:47:42;10.30;99.90
18753;DHT22;9505;50.882;5.350;2023-12-29T09:50:12;10.40;99.90
18753;DHT22;9505;50.882;5.350;2023-12-29T09:52:41;10.60;99.90
18753;DHT22;9505;50.882;5.350;2023-12-29T09:55:09;10.50;99.90
18753;DHT22;9505;50.882;5.350;2023-12-29T09:57:38;10.60;99.90
18753;DHT22;9505;50.882;5.350;2023-12-29T10:00:05;10.60;99.90
18753;DHT22;9505;50.882;5.350;2023-12-29T10:02:31;10.60;99.90
18753;DHT22;9505;50.882;5.350;2023-12-29T10:05:00;10.50;99.90
18753;DHT22;9505;50.882;5.350;2023-12-29T10:07:27;10.50;99.90
18753;DHT22;9505;50.882;5.350;2023-12-29T10:09:57;10.50;99.90
18753;DHT22;9505;50.882;5.350;2023-12-29T10:12:28;10.50;99.90
18753;DHT22;9505;50.882;5.350;2023-12-29T10:15:21;10.60;99.90
18753;DHT22;9505;50.882;5.350;2023-12-29T10:18:06;10.60;99.90
18753;DHT22;9505;50.882;5.350;2023-12-29T10:20:55;10.70;99.90
18753;DHT22;9505;50.882;5.350;2023-12-29T10:23:32;10.80;99.90
18753;DHT22;9505;50.882;5.350;2023-12-29T10:26:00;11.00;99.90
18753;DHT22;9505;50.882;5.350;2023-12-29T10:28:26;11.10;99.90
18753;DHT22;9505;50.882;5.350;2023-12-29T10:30:51;11.10;99.90
18753;DHT22;9505;50.882;5.350;2023-12-29T10:33:20;11.10;99.90
18753;DHT22;9505;50.882;5.350;2023-12-29T10:35:57;11.10;99.90
18753;DHT22;9505;50.882;5.350;2023-12-29T10:38:29;11.20;99.90
18753;DHT22;9505;50.882;5.350;2023-12-29T10:41:06;11.10;99.90
18753;DHT22;9505;50.882;5.350;2023-12-29T10:43:35;11.00;99.90
18753;DHT22;9505;50.882;5.350;2023-12-29T10:46:08;11.10;99.90
18753;DHT22;9505;50.882;5.350;2023-12-29T10:48:34;11.00;99.90
18753;DHT22;9505;50.882;5.350;2023-12-29T10:51:00;10.90;99.90
18753;DHT22;9505;50.882;5.350;2023-12-29T10:53:29;10.90;99.90
18753;DHT22;9505;50.882;5.350;2023-12-29T10:55:55;10.90;99.90
18753;DHT22;9505;50.882;5.350;2023-12-29T10:58:21;10.90;99.90
18753;DHT22;9505;50.882;5.350;2023-12-29T11:00:47;10.90;99.90
18753;DHT22;9505;50.882;5.350;2023-12-29T11:03:15;11.00;99.90
18753;DHT22;9505;50.882;5.350;2023-12-29T11:05:42;11.00;99.90
18753;DHT22;9505;50.882;5.350;2023-12-29T11:08:21;11.00;99.90
18753;DHT22;9505;50.882;5.350;2023-12-29T11:10:50;11.10;99.90
18753;DHT22;9505;50.882;5.350;2023-12-29T11:13:16;11.00;99.90
18753;DHT22;9505;50.882;5.350;2023-12-29T11:15:45;10.90;99.90
18753;DHT22;9505;50.882;5.350;2023-12-29T11:18:15;10.90;99.90
18753;DHT22;9505;50.882;5.350;2023-12-29T11:20:43;10.90;99.90
18753;DHT22;9505;50.882;5.350;2023-12-29T11:23:10;10.90;99.90
18753;DHT22;9505;50.882;5.350;2023-12-29T11:25:38;10.90;99.90
18753;DHT22;9505;50.882;5.350;2023-12-29T11:28:06;10.80;99.90
18753;DHT22;9505;50.882;5.350;2023-12-29T11:30:34;10.80;99.90
18753;DHT22;9505;50.882;5.350;2023-12-29T11:33:20;10.70;99.90
18753;DHT22;9505;50.882;5.350;2023-12-29T11:35:57;10.80;99.90
18753;DHT22;9505;50.882;5.350;2023-12-29T11:38:29;10.70;99.90
18753;DHT22;9505;50.882;5.350;2023-12-29T11:43:59;10.70;99.90
18753;DHT22;9505;50.882;5.350;2023-12-29T11:49:04;10.80;99.90
18753;DHT22;9505;50.882;5.350;2023-12-29T11:51:44;10.90;99.90
18753;DHT22;9505;50.882;5.350;2023-12-29T11:54:10;10.90;99.90
18753;DHT22;9505;50.882;5.350;2023-12-29T11:56:46;11.00;99.90
18753;DHT22;9505;50.882;5.350;2023-12-29T11:59:16;11.10;99.90
18753;DHT22;9505;50.882;5.350;2023-12-29T12:01:47;11.10;99.90
18753;DHT22;9505;50.882;5.350;2023-12-29T12:07:07;11.10;99.90
18753;DHT22;9505;50.882;5.350;2023-12-29T12:09:34;11.30;99.90
18753;DHT22;9505;50.882;5.350;2023-12-29T12:12:01;11.20;99.90
18753;DHT22;9505;50.882;5.350;2023-12-29T12:14:51;11.20;99.90
18753;DHT22;9505;50.882;5.350;2023-12-29T12:17:31;11.20;99.90
18753;DHT22;9505;50.882;5.350;2023-12-29T12:20:07;11.10;99.90
18753;DHT22;9505;50.882;5.350;2023-12-29T12:22:36;11.20;99.90
18753;DHT22;9505;50.882;5.350;2023-12-29T12:25:03;11.20;99.90
18753;DHT22;9505;50.882;5.350;2023-12-29T12:27:30;11.20;99.90
18753;DHT22;9505;50.882;5.350;2023-12-29T12:29:58;11.20;99.90
18753;DHT22;9505;50.882;5.350;2023-12-29T12:32:27;11.20;99.90
18753;DHT22;9505;50.882;5.350;2023-12-29T12:34:54;11.20;99.90
18753;DHT22;9505;50.882;5.350;2023-12-29T12:37:25;11.20;99.90
18753;DHT22;9505;50.882;5.350;2023-12-29T12:39:51;11.10;99.90
18753;DHT22;9505;50.882;5.350;2023-12-29T12:42:19;11.00;99.90
18753;DHT22;9505;50.882;5.350;2023-12-29T12:45:06;11.00;99.90
18753;DHT22;9505;50.882;5.350;2023-12-29T12:50:13;11.00;99.90
18753;DHT22;9505;50.882;5.350;2023-12-29T12:52:39;10.90;99.90
18753;DHT22;9505;50.882;5.350;2023-12-29T12:55:06;10.90;99.90
18753;DHT22;9505;50.882;5.350;2023-12-29T12:57:33;10.70;99.90
18753;DHT22;9505;50.882;5.350;2023-12-29T13:00:00;10.60;99.90
18753;DHT22;9505;50.882;5.350;2023-12-29T13:02:27;10.50;99.90
18753;DHT22;9505;50.882;5.350;2023-12-29T13:04:54;10.50;99.90
18753;DHT22;9505;50.882;5.350;2023-12-29T13:07:20;10.30;99.90
18753;DHT22;9505;50.882;5.350;2023-12-29T13:09:47;10.20;99.90
18753;DHT22;9505;50.882;5.350;2023-12-29T13:12:16;10.10;99.90
18753;DHT22;9505;50.882;5.350;2023-12-29T13:14:42;10.10;99.90
18753;DHT22;9505;50.882;5.350;2023-12-29T13:17:15;10.20;99.90
18753;DHT22;9505;50.882;5.350;2023-12-29T13:19:42;10.30;99.90
18753;DHT22;9505;50.882;5.350;2023-12-29T13:22:11;10.30;99.90
18753;DHT22;9505;50.882;5.350;2023-12-29T13:24:46;10.30;99.90
18753;DHT22;9505;50.882;5.350;2023-12-29T13:27:13;10.30;99.90
18753;DHT22;9505;50.882;5.350;2023-12-29T13:29:39;10.30;99.90
18753;DHT22;9505;50.882;5.350;2023-12-29T13:32:17;10.30;99.90
18753;DHT22;9505;50.882;5.350;2023-12-29T13:40:38;10.20;99.90
18753;DHT22;9505;50.882;5.350;2023-12-29T13:43:03;10.20;99.90
18753;DHT22;9505;50.882;5.350;2023-12-29T13:45:30;10.20;99.90
18753;DHT22;9505;50.882;5.350;2023-12-29T13:47:57;10.30;99.90
18753;DHT22;9505;50.882;5.350;2023-12-29T13:50:23;10.40;99.90
18753;DHT22;9505;50.882;5.350;2023-12-29T13:52:49;10.40;99.90
18753;DHT22;9505;50.882;5.350;2023-12-29T13:55:24;10.30;99.90
18753;DHT22;9505;50.882;5.350;2023-12-29T13:57:53;10.40;99.90
18753;DHT22;9505;50.882;5.350;2023-12-29T14:00:21;10.40;99.90
18753;DHT22;9505;50.882;5.350;2023-12-29T14:03:14;10.40;99.90
18753;DHT22;9505;50.882;5.350;2023-12-29T14:05:48;10.40;99.90
18753;DHT22;9505;50.882;5.350;2023-12-29T14:08:18;10.40;99.90
18753;DHT22;9505;50.882;5.350;2023-12-29T14:10:47;10.30;99.90
18753;DHT22;9505;50.882;5.350;2023-12-29T14:13:14;10.40;99.90
18753;DHT22;9505;50.882;5.350;2023-12-29T14:15:41;10.40;99.90
18753;DHT22;9505;50.882;5.350;2023-12-29T14:20:41;10.50;99.90
18753;DHT22;9505;50.882;5.350;2023-12-29T14:23:07;10.50;99.90
18753;DHT22;9505;50.882;5.350;2023-12-29T14:25:34;10.50;99.90
18753;DHT22;9505;50.882;5.350;2023-12-29T14:28:02;10.40;99.90
18753;DHT22;9505;50.882;5.350;2023-12-29T14:30:28;10.40;99.90
18753;DHT22;9505;50.882;5.350;2023-12-29T14:32:57;10.40;99.90
18753;DHT22;9505;50.882;5.350;2023-12-29T14:35:23;10.30;99.90
18753;DHT22;9505;50.882;5.350;2023-12-29T14:37:49;10.20;99.90
18753;DHT22;9505;50.882;5.350;2023-12-29T14:40:15;10.20;99.90
18753;DHT22;9505;50.882;5.350;2023-12-29T14:42:41;10.20;99.90
18753;DHT22;9505;50.882;5.350;2023-12-29T14:45:08;10.20;99.90
18753;DHT22;9505;50.882;5.350;2023-12-29T14:47:35;10.20;99.90
18753;DHT22;9505;50.882;5.350;2023-12-29T14:50:01;10.30;99.90
18753;DHT22;9505;50.882;5.350;2023-12-29T14:52:27;10.30;99.90
18753;DHT22;9505;50.882;5.350;2023-12-29T14:54:52;10.30;99.90
18753;DHT22;9505;50.882;5.350;2023-12-29T14:57:18;10.30;99.90
18753;DHT22;9505;50.882;5.350;2023-12-29T14:59:44;10.30;99.90
18753;DHT22;9505;50.882;5.350;2023-12-29T15:02:09;10.30;99.90
18753;DHT22;9505;50.882;5.350;2023-12-29T15:04:35;10.20;99.90
18753;DHT22;9505;50.882;5.350;2023-12-29T15:07:02;10.20;99.90
18753;DHT22;9505;50.882;5.350;2023-12-29T15:09:28;10.20;99.90
18753;DHT22;9505;50.882;5.350;2023-12-29T15:11:53;10.20;99.90
18753;DHT22;9505;50.882;5.350;2023-12-29T15:14:20;10.10;99.90
18753;DHT22;9505;50.882;5.350;2023-12-29T15:16:45;10.20;99.90
18753;DHT22;9505;50.882;5.350;2023-12-29T15:19:12;10.10;99.90
18753;DHT22;9505;50.882;5.350;2023-12-29T15:21:38;10.20;99.90
18753;DHT22;9505;50.882;5.350;2023-12-29T15:24:04;10.10;99.90
18753;DHT22;9505;50.882;5.350;2023-12-29T15:26:30;10.10;99.90
18753;DHT22;9505;50.882;5.350;2023-12-29T15:28:56;10.20;99.90
18753;DHT22;9505;50.882;5.350;2023-12-29T15:31:23;10.10;99.90
18753;DHT22;9505;50.882;5.350;2023-12-29T15:33:49;10.10;99.90
18753;DHT22;9505;50.882;5.350;2023-12-29T15:36:15;10.20;99.90
18753;DHT22;9505;50.882;5.350;2023-12-29T15:38:49;10.20;99.90
18753;DHT22;9505;50.882;5.350;2023-12-29T15:41:15;10.20;99.90
18753;DHT22;9505;50.882;5.350;2023-12-29T15:43:40;10.20;99.90
18753;DHT22;9505;50.882;5.350;2023-12-29T15:46:16;10.20;99.90
18753;DHT22;9505;50.882;5.350;2023-12-29T15:48:45;10.20;99.90
18753;DHT22;9505;50.882;5.350;2023-12-29T15:51:11;10.20;99.90
18753;DHT22;9505;50.882;5.350;2023-12-29T15:53:37;10.20;99.90
18753;DHT22;9505;50.882;5.350;2023-12-29T15:56:06;10.30;99.90
18753;DHT22;9505;50.882;5.350;2023-12-29T15:58:31;10.30;99.90
18753;DHT22;9505;50.882;5.350;2023-12-29T16:00:57;10.40;99.90
18753;DHT22;9505;50.882;5.350;2023-12-29T16:03:23;10.30;99.90
18753;DHT22;9505;50.882;5.350;2023-12-29T16:05:49;10.40;99.90
18753;DHT22;9505;50.882;5.350;2023-12-29T16:08:14;10.30;99.90
18753;DHT22;9505;50.882;5.350;2023-12-29T16:10:41;10.30;99.90